Time;durP1;ratioP1;P1;durP2;ratioP2;P2;SDS_P1;SDS_P2;PMS_P1;PMS_P2;Temp;Humidity;BMP_temperature;BMP_pressure;BME280_temperature;BME280_humidity;BME280_pressure;Samples;Min_cycle;Max_cycle;Signal;HPM_P1;HPM_P2
2023/01/13 00:01:11;;;;;;;15.05;8.75;;;3.00;99.90;;;;;;5030384;28;20047;-75
2023/01/13 00:03:37;;;;;;;12.68;8.13;;;3.00;99.90;;;;;;5012542;28;20538;-75
2023/01/13 00:06:04;;;;;;;13.65;7.78;;;3.10;99.90;;;;;;5012646;28;20022;-78
2023/01/13 00:08:30;;;;;;;20.70;8.82;;;3.10;99.90;;;;;;5030234;28;20049;-78
2023/01/13 00:10:55;;;;;;;12.00;8.75;;;3.20;99.90;;;;;;5030142;28;20502;-81
2023/01/13 00:13:25;;;;;;;13.18;7.22;;;3.20;99.90;;;;;;5012469;28;20432;-80
2023/01/13 00:15:58;;;;;;;15.02;8.77;;;3.20;99.90;;;;;;5030030;28;20479;-80
2023/01/13 00:18:25;;;;;;;12.70;7.38;;;3.20;99.90;;;;;;5030266;28;20040;-77
2023/01/13 00:21:06;;;;;;;11.52;6.65;;;3.30;99.90;;;;;;5012377;28;20067;-80
2023/01/13 00:23:33;;;;;;;15.88;7.75;;;3.30;99.90;;;;;;5030094;28;20394;-80
2023/01/13 00:26:01;;;;;;;14.55;8.00;;;3.40;99.90;;;;;;5012360;28;20368;-80
2023/01/13 00:28:27;;;;;;;11.38;7.20;;;3.40;99.90;;;;;;5029888;28;20033;-76
2023/01/13 00:30:56;;;;;;;13.27;9.07;;;3.40;99.90;;;;;;5029728;28;20402;-76
2023/01/13 00:33:22;;;;;;;18.15;8.82;;;3.40;99.90;;;;;;5030034;28;20133;-77
2023/01/13 00:35:58;;;;;;;13.48;8.02;;;3.50;99.90;;;;;;5029823;28;20030;-75
2023/01/13 00:38:24;;;;;;;26.35;12.45;;;3.50;99.90;;;;;;5030081;28;20021;-75
2023/01/13 00:41:00;;;;;;;17.15;9.30;;;3.50;99.90;;;;;;5029996;28;20061;-77
2023/01/13 00:43:28;;;;;;;17.42;8.73;;;3.50;99.90;;;;;;5029901;28;20367;-76
2023/01/13 00:45:54;;;;;;;18.60;9.45;;;3.50;99.90;;;;;;5029801;28;20096;-79
2023/01/13 00:48:22;;;;;;;11.75;8.35;;;3.50;99.90;;;;;;5012063;28;20121;-79
2023/01/13 00:51:05;;;;;;;33.20;13.07;;;3.50;99.90;;;;;;5012070;28;20112;-79
2023/01/13 00:53:36;;;;;;;16.80;8.20;;;3.50;99.90;;;;;;5012224;28;20029;-78
2023/01/13 00:56:08;;;;;;;12.48;7.70;;;3.50;99.90;;;;;;5012149;28;20034;-79
2023/01/13 00:58:34;;;;;;;12.18;6.97;;;3.50;99.90;;;;;;5012120;28;20083;-75
2023/01/13 01:01:08;;;;;;;11.25;7.25;;;3.60;99.90;;;;;;5015590;28;20026;-79
2023/01/13 01:03:34;;;;;;;11.10;6.50;;;3.60;99.90;;;;;;5032982;28;20108;-79
2023/01/13 01:06:06;;;;;;;12.65;6.43;;;3.60;99.90;;;;;;5033052;28;20052;-79
2023/01/13 01:08:33;;;;;;;12.98;7.45;;;3.60;99.90;;;;;;5035628;28;20069;-76
2023/01/13 01:11:04;;;;;;;11.45;6.60;;;3.70;99.90;;;;;;5052785;28;20493;-76
2023/01/13 01:13:30;;;;;;;9.43;6.22;;;3.70;99.90;;;;;;5052751;28;20434;-76
2023/01/13 01:15:55;;;;;;;10.63;7.13;;;3.80;99.90;;;;;;5034819;28;20107;-76
2023/01/13 01:18:21;;;;;;;7.85;5.78;;;3.80;99.90;;;;;;5052610;28;20390;-76
2023/01/13 01:20:46;;;;;;;7.10;5.20;;;3.90;99.90;;;;;;5034749;28;20017;-76
2023/01/13 01:23:12;;;;;;;10.40;6.45;;;3.90;99.90;;;;;;5052617;28;20443;-76
2023/01/13 01:25:38;;;;;;;13.02;6.80;;;3.90;99.90;;;;;;5052532;28;20431;-79
2023/01/13 01:28:03;;;;;;;11.27;6.53;;;3.90;99.90;;;;;;5034676;28;20471;-80
2023/01/13 01:30:29;;;;;;;12.40;6.05;;;3.90;99.90;;;;;;5052299;28;20108;-76
2023/01/13 01:32:56;;;;;;;8.85;6.20;;;4.00;99.90;;;;;;5052505;28;20385;-76
2023/01/13 01:35:23;;;;;;;7.65;5.18;;;4.00;99.90;;;;;;5052482;28;20478;-76
2023/01/13 01:37:48;;;;;;;9.55;5.43;;;4.00;99.90;;;;;;5052311;28;20024;-79
2023/01/13 01:40:14;;;;;;;8.68;5.80;;;4.10;99.90;;;;;;5034344;28;20070;-79
2023/01/13 01:45:29;;;;;;;7.47;5.28;;;4.10;99.90;;;;;;5052256;28;20078;-79
2023/01/13 01:47:59;;;;;;;9.88;4.97;;;4.10;99.90;;;;;;5052592;28;20032;-75
2023/01/13 01:50:26;;;;;;;9.80;4.97;;;4.10;99.90;;;;;;5034272;28;20435;-75
2023/01/13 01:53:04;;;;;;;7.90;4.88;;;4.20;99.90;;;;;;5052100;28;20137;-79
2023/01/13 01:55:33;;;;;;;8.50;4.80;;;4.20;99.90;;;;;;5052205;28;20032;-75
2023/01/13 01:58:05;;;;;;;10.48;4.90;;;4.20;99.90;;;;;;5052134;28;20021;-79
2023/01/13 02:00:31;;;;;;;7.95;5.25;;;4.20;99.90;;;;;;5034126;28;20112;-79
2023/01/13 02:02:58;;;;;;;7.78;4.60;;;4.20;99.90;;;;;;5034152;28;20569;-75
2023/01/13 02:05:23;;;;;;;7.40;4.75;;;4.20;99.90;;;;;;5034214;28;20458;-75
2023/01/13 02:07:52;;;;;;;6.85;4.78;;;4.20;99.90;;;;;;5051505;28;20021;-75
2023/01/13 02:10:21;;;;;;;5.28;4.30;;;4.20;99.90;;;;;;5033566;28;20116;-76
2023/01/13 02:12:47;;;;;;;6.35;4.22;;;4.20;99.90;;;;;;5033830;28;20132;-80
2023/01/13 02:15:16;;;;;;;8.38;5.88;;;4.20;99.90;;;;;;5051670;28;20081;-79
2023/01/13 02:17:57;;;;;;;6.50;4.80;;;4.20;99.90;;;;;;5051795;28;20377;-76
2023/01/13 02:20:28;;;;;;;4.75;3.90;;;4.20;99.90;;;;;;5033846;28;20029;-80
2023/01/13 02:26:25;;;;;;;6.63;4.47;;;4.10;99.90;;;;;;5051689;28;20101;-79
2023/01/13 02:32:27;;;;;;;7.15;4.65;;;4.00;99.90;;;;;;5051497;28;20060;-79
2023/01/13 02:35:05;;;;;;;8.10;4.55;;;4.00;99.90;;;;;;5033514;28;20508;-75
2023/01/13 02:37:35;;;;;;;6.72;4.82;;;4.00;99.90;;;;;;5033666;28;20034;-75
2023/01/13 02:40:10;;;;;;;8.85;5.18;;;4.10;99.90;;;;;;5051491;28;20029;-79
2023/01/13 02:45:47;;;;;;;8.57;5.45;;;4.10;99.90;;;;;;5051425;28;20448;-76
2023/01/13 02:48:15;;;;;;;8.52;6.03;;;4.10;99.90;;;;;;5033617;28;20562;-79
2023/01/13 02:50:52;;;;;;;8.48;5.70;;;4.10;99.90;;;;;;5033196;28;20443;-76
2023/01/13 02:53:51;;;;;;;7.18;5.32;;;4.10;99.90;;;;;;5051202;28;20112;-79
2023/01/13 02:56:18;;;;;;;8.02;5.72;;;4.20;99.90;;;;;;5037332;28;20037;-79
2023/01/13 02:58:47;;;;;;;8.68;5.63;;;4.10;99.90;;;;;;5051104;28;20077;-79
2023/01/13 03:01:13;;;;;;;8.25;5.50;;;4.10;99.90;;;;;;5033279;28;20119;-75
2023/01/13 03:03:39;;;;;;;8.73;6.03;;;4.10;99.90;;;;;;5050853;28;20063;-76
2023/01/13 03:06:17;;;;;;;10.68;6.22;;;4.10;99.90;;;;;;5033147;28;20112;-76
2023/01/13 03:08:49;;;;;;;7.57;5.50;;;4.00;99.90;;;;;;5051027;28;20041;-79
2023/01/13 03:11:19;;;;;;;9.48;5.93;;;4.10;99.90;;;;;;5051146;28;20029;-76
2023/01/13 03:14:14;;;;;;;7.25;5.45;;;4.00;99.90;;;;;;5033031;28;20444;-75
2023/01/13 03:17:07;;;;;;;8.00;5.70;;;4.00;99.90;;;;;;5050889;28;20029;-75
2023/01/13 03:19:58;;;;;;;10.55;7.15;;;4.00;99.90;;;;;;5032789;28;20040;-79
2023/01/13 03:22:39;;;;;;;8.32;5.53;;;4.00;99.90;;;;;;5032086;28;20021;-75
2023/01/13 03:25:13;;;;;;;10.02;7.05;;;4.00;99.90;;;;;;5033025;28;20111;-76
2023/01/13 03:28:02;;;;;;;9.93;6.82;;;3.90;99.90;;;;;;5050727;28;20028;-75
2023/01/13 03:30:43;;;;;;;10.63;6.55;;;3.90;99.90;;;;;;5032673;28;20033;-78
2023/01/13 03:33:14;;;;;;;11.95;6.60;;;3.90;99.90;;;;;;5032824;28;20017;-76
2023/01/13 03:35:48;;;;;;;20.20;11.73;;;3.90;99.90;;;;;;5032801;28;20383;-78
2023/01/13 03:38:34;;;;;;;14.05;9.10;;;3.80;99.90;;;;;;5032711;28;20490;-77
2023/01/13 03:41:12;;;;;;;12.13;7.85;;;3.80;99.90;;;;;;5050547;28;20025;-76
2023/01/13 03:46:36;;;;;;;8.05;6.30;;;3.80;99.90;;;;;;5050427;28;20078;-76
2023/01/13 03:49:06;;;;;;;11.68;6.72;;;3.70;99.90;;;;;;5050477;28;20037;-78
2023/01/13 03:51:33;;;;;;;8.70;6.53;;;3.70;99.90;;;;;;5032407;28;20029;-76
2023/01/13 03:54:04;;;;;;;10.75;6.50;;;3.70;99.90;;;;;;5050051;28;20021;-76
2023/01/13 03:56:42;;;;;;;9.85;6.32;;;3.70;99.90;;;;;;5032390;28;20060;-79
2023/01/13 03:59:13;;;;;;;12.23;7.57;;;3.70;99.90;;;;;;5032533;28;20127;-76
2023/01/13 04:01:55;;;;;;;13.57;9.05;;;3.70;99.90;;;;;;5032317;28;20017;-76
2023/01/13 04:04:29;;;;;;;9.05;6.82;;;3.70;99.90;;;;;;5032528;28;20465;-76
2023/01/13 04:07:22;;;;;;;10.45;6.85;;;3.70;99.90;;;;;;5032326;28;20036;-78
2023/01/13 04:10:01;;;;;;;14.48;9.40;;;3.80;99.90;;;;;;5032522;28;20044;-76
2023/01/13 04:15:21;;;;;;;18.15;9.75;;;3.80;99.90;;;;;;5050280;28;20086;-76
2023/01/13 04:17:46;;;;;;;11.05;8.15;;;3.80;99.90;;;;;;5050035;28;20024;-75
2023/01/13 04:20:12;;;;;;;11.25;7.35;;;3.80;99.90;;;;;;5050084;28;20028;-76
2023/01/13 04:22:38;;;;;;;11.73;7.35;;;3.80;99.90;;;;;;5032096;28;20025;-79
2023/01/13 04:25:04;;;;;;;9.23;6.30;;;3.90;99.90;;;;;;5032240;28;20076;-79
2023/01/13 04:27:30;;;;;;;9.32;6.15;;;3.90;99.90;;;;;;5049837;28;20057;-76
2023/01/13 04:29:55;;;;;;;10.45;5.50;;;4.00;99.90;;;;;;5049797;28;20072;-75
2023/01/13 04:32:21;;;;;;;6.18;5.30;;;4.00;99.90;;;;;;5049645;28;20698;-79
2023/01/13 04:34:46;;;;;;;8.15;5.38;;;4.10;99.90;;;;;;5051836;28;20359;-76
2023/01/13 04:37:12;;;;;;;13.32;6.28;;;4.10;99.90;;;;;;5053404;28;20021;-75
2023/01/13 04:39:38;;;;;;;13.15;7.35;;;4.20;99.90;;;;;;5053150;28;20021;-79
2023/01/13 04:42:03;;;;;;;8.93;6.07;;;4.20;99.90;;;;;;5035385;28;20024;-76
2023/01/13 04:44:34;;;;;;;7.57;5.90;;;4.20;99.90;;;;;;5035374;28;20054;-76
2023/01/13 04:47:00;;;;;;;9.57;5.75;;;4.20;99.90;;;;;;5035263;28;20119;-75
2023/01/13 04:49:26;;;;;;;8.43;5.85;;;4.30;99.90;;;;;;5053195;28;20063;-76
2023/01/13 04:51:52;;;;;;;8.48;5.95;;;4.40;99.90;;;;;;5052916;28;20033;-76
2023/01/13 04:54:18;;;;;;;9.00;6.05;;;4.40;99.90;;;;;;5035098;28;20103;-79
2023/01/13 04:56:43;;;;;;;8.43;6.05;;;4.50;99.90;;;;;;5052798;28;20029;-79
2023/01/13 04:59:10;;;;;;;6.75;5.90;;;4.50;99.90;;;;;;5035152;28;20470;-76
2023/01/13 05:01:36;;;;;;;8.95;6.25;;;4.60;99.90;;;;;;5035030;28;20025;-79
2023/01/13 05:04:02;;;;;;;6.43;4.72;;;4.70;99.90;;;;;;5053046;28;20029;-79
2023/01/13 05:06:28;;;;;;;8.05;5.38;;;4.70;99.90;;;;;;5034982;28;20024;-76
2023/01/13 05:08:54;;;;;;;12.57;7.72;;;4.70;99.90;;;;;;5034907;28;20017;-79
2023/01/13 05:17:00;;;;;;;8.20;5.80;;;4.90;99.90;;;;;;5053017;28;20453;-81
2023/01/13 05:19:39;;;;;;;8.02;5.95;;;4.80;99.90;;;;;;5122059;27;20545;-81
2023/01/13 05:27:34;;;;;;;27.02;9.48;;;4.90;99.90;;;;;;5050437;28;20094;-80
2023/01/13 05:30:00;;;;;;;8.50;5.35;;;4.90;99.90;;;;;;5051620;28;20077;-80
2023/01/13 05:32:26;;;;;;;12.07;6.03;;;4.90;99.90;;;;;;5033839;28;20148;-80
2023/01/13 05:34:52;;;;;;;8.90;5.10;;;5.00;99.90;;;;;;5052273;28;20033;-76
2023/01/13 05:37:18;;;;;;;10.05;5.93;;;5.00;99.90;;;;;;5034228;28;20029;-76
2023/01/13 05:45:12;;;;;;;7.05;5.07;;;5.00;99.90;;;;;;5051868;28;20497;-77
2023/01/13 05:47:38;;;;;;;7.13;4.90;;;5.00;99.90;;;;;;5050933;28;20029;-77
2023/01/13 05:50:04;;;;;;;6.35;5.07;;;5.00;99.90;;;;;;5034196;28;20033;-77
2023/01/13 05:52:30;;;;;;;7.93;5.72;;;5.00;99.90;;;;;;5034131;28;20025;-81
2023/01/13 05:54:56;;;;;;;8.85;4.85;;;5.10;99.90;;;;;;5033973;28;20029;-81
2023/01/13 05:57:22;;;;;;;10.45;5.40;;;5.10;99.90;;;;;;5033997;28;20036;-77
2023/01/13 05:59:48;;;;;;;7.78;5.78;;;5.10;99.90;;;;;;5051845;28;20032;-80
2023/01/13 06:02:13;;;;;;;8.57;5.30;;;5.10;99.90;;;;;;5051219;28;20031;-81
2023/01/13 06:04:39;;;;;;;7.60;5.40;;;5.10;99.90;;;;;;5033881;28;20025;-77
2023/01/13 06:07:04;;;;;;;6.32;4.80;;;5.10;99.90;;;;;;5051731;28;20066;-81
2023/01/13 06:09:30;;;;;;;9.73;6.20;;;5.20;99.90;;;;;;5033775;28;20033;-82
2023/01/13 06:11:56;;;;;;;8.07;5.22;;;5.20;99.90;;;;;;5033795;28;20025;-82
2023/01/13 06:14:22;;;;;;;10.38;6.70;;;5.20;99.90;;;;;;5052466;28;20474;-80
2023/01/13 06:16:47;;;;;;;7.60;4.60;;;5.10;99.90;;;;;;5051766;28;20032;-81
2023/01/13 06:19:13;;;;;;;7.55;5.10;;;5.20;99.90;;;;;;5051164;28;20036;-81
2023/01/13 06:21:39;;;;;;;6.88;5.13;;;5.20;99.90;;;;;;5120271;27;20044;-81
2023/01/13 06:24:06;;;;;;;7.05;4.60;;;5.10;99.90;;;;;;5051420;27;20060;-81
2023/01/13 06:26:38;;;;;;;7.65;5.72;;;5.20;99.90;;;;;;5120446;27;20029;-81
2023/01/13 06:29:04;;;;;;;8.98;5.53;;;5.20;99.90;;;;;;5063217;27;20047;-81
2023/01/13 06:31:32;;;;;;;9.55;5.40;;;5.20;99.90;;;;;;5079037;27;20045;-81
2023/01/13 06:34:06;;;;;;;6.25;4.88;;;5.20;99.90;;;;;;5152103;27;20030;-76
2023/01/13 06:36:39;;;;;;;6.43;4.30;;;5.20;99.90;;;;;;5084589;27;20029;-76
2023/01/13 06:39:05;;;;;;;5.95;4.38;;;5.30;99.90;;;;;;5051157;28;20059;-77
2023/01/13 06:44:18;;;;;;;5.85;4.70;;;5.30;99.90;;;;;;5051175;28;20516;-77
2023/01/13 06:46:43;;;;;;;11.27;6.57;;;5.40;99.90;;;;;;5049961;28;20435;-77
2023/01/13 06:49:09;;;;;;;8.70;5.05;;;5.40;99.90;;;;;;5037997;27;20040;-82
2023/01/13 06:51:34;;;;;;;10.60;5.72;;;5.40;99.90;;;;;;5083896;27;20019;-81
2023/01/13 06:54:00;;;;;;;8.82;6.07;;;5.40;99.90;;;;;;5089619;27;20033;-77
2023/01/13 06:56:25;;;;;;;8.50;5.07;;;5.40;99.90;;;;;;5117049;27;20042;-78
2023/01/13 06:58:51;;;;;;;8.38;5.10;;;5.40;99.90;;;;;;5140801;27;20121;-81
2023/01/13 07:01:17;;;;;;;6.05;4.70;;;5.40;99.90;;;;;;5083451;27;20021;-81
2023/01/13 07:03:42;;;;;;;8.27;5.10;;;5.40;99.90;;;;;;5098401;27;20083;-81
2023/01/13 07:06:08;;;;;;;6.18;4.55;;;5.40;99.90;;;;;;5139163;27;20465;-78
2023/01/13 07:08:33;;;;;;;7.63;5.07;;;5.50;99.90;;;;;;5032856;27;20048;-81
2023/01/13 07:11:01;;;;;;;6.47;4.97;;;5.50;99.90;;;;;;5050667;28;20037;-78
2023/01/13 07:16:11;;;;;;;6.32;4.72;;;5.60;99.90;;;;;;5050803;28;20039;-77
2023/01/13 07:18:37;;;;;;;12.20;5.50;;;5.50;99.90;;;;;;5032336;28;20025;-77
2023/01/13 07:21:12;;;;;;;6.97;4.40;;;5.60;99.90;;;;;;5032008;28;20032;-78
2023/01/13 07:23:39;;;;;;;7.78;4.95;;;5.60;99.90;;;;;;5050279;28;20014;-77
2023/01/13 07:26:07;;;;;;;4.97;4.40;;;5.60;99.90;;;;;;5032458;28;20021;-78
2023/01/13 07:28:33;;;;;;;8.93;4.70;;;5.70;99.90;;;;;;5032236;28;20077;-77
2023/01/13 07:30:59;;;;;;;7.97;6.00;;;5.70;99.90;;;;;;5049932;28;20486;-77
2023/01/13 07:33:25;;;;;;;6.55;4.90;;;5.70;99.90;;;;;;5015758;28;20025;-77
2023/01/13 07:35:59;;;;;;;9.25;4.88;;;5.70;99.90;;;;;;5049768;28;20474;-78
2023/01/13 07:38:25;;;;;;;9.32;5.55;;;5.70;99.90;;;;;;5049968;28;20398;-77
2023/01/13 07:40:50;;;;;;;8.00;5.57;;;5.70;99.90;;;;;;5032095;28;20030;-78
2023/01/13 07:43:31;;;;;;;10.75;5.65;;;5.80;99.90;;;;;;5032131;28;20094;-78
2023/01/13 07:46:03;;;;;;;7.97;5.03;;;5.80;99.90;;;;;;5050030;28;20100;-78
2023/01/13 07:48:30;;;;;;;9.50;6.00;;;5.80;99.90;;;;;;5032224;28;20048;-77
2023/01/13 07:50:55;;;;;;;9.50;5.30;;;5.80;99.90;;;;;;5049563;28;20402;-77
2023/01/13 07:53:23;;;;;;;10.48;6.07;;;5.90;99.90;;;;;;5049892;28;20018;-77
2023/01/13 07:55:49;;;;;;;10.70;6.45;;;5.90;99.90;;;;;;5050014;28;20074;-78
2023/01/13 07:58:15;;;;;;;7.95;4.50;;;5.90;99.90;;;;;;5049832;28;20029;-77
2023/01/13 08:00:41;;;;;;;8.88;4.88;;;6.00;99.90;;;;;;5057546;28;20021;-78
2023/01/13 08:03:06;;;;;;;9.18;5.00;;;6.00;99.90;;;;;;5032938;28;20047;-78
2023/01/13 08:05:35;;;;;;;6.95;4.45;;;6.00;99.90;;;;;;5049560;28;20021;-78
2023/01/13 08:08:01;;;;;;;7.38;4.95;;;6.00;99.90;;;;;;5049726;28;20027;-77
2023/01/13 08:10:26;;;;;;;6.55;4.82;;;6.10;99.90;;;;;;5051760;28;20438;-78
2023/01/13 08:15:36;;;;;;;6.55;4.35;;;6.10;99.90;;;;;;5052560;28;20039;-78
2023/01/13 08:18:01;;;;;;;7.20;4.95;;;6.10;99.90;;;;;;5053724;28;20100;-81
2023/01/13 08:20:27;;;;;;;7.63;5.13;;;6.20;99.90;;;;;;5035826;28;20034;-78
2023/01/13 08:22:57;;;;;;;6.82;4.68;;;6.20;99.90;;;;;;5035783;28;20398;-76
2023/01/13 08:25:23;;;;;;;4.93;4.35;;;6.30;99.90;;;;;;5035722;28;20029;-77
2023/01/13 08:27:49;;;;;;;6.03;4.43;;;6.30;99.90;;;;;;5053470;28;20025;-77
2023/01/13 08:30:16;;;;;;;6.57;4.38;;;6.40;99.90;;;;;;5034098;28;20027;-77
2023/01/13 08:32:46;;;;;;;5.07;4.18;;;6.40;99.90;;;;;;5034807;28;20490;-77
2023/01/13 08:35:12;;;;;;;9.70;4.35;;;6.50;99.90;;;;;;5056249;27;20484;-77
2023/01/13 08:37:38;;;;;;;8.40;5.07;;;6.50;99.90;;;;;;5137777;27;20027;-77
2023/01/13 08:40:04;;;;;;;7.93;4.93;;;6.60;99.90;;;;;;5101376;27;20266;-78
2023/01/13 08:42:30;;;;;;;8.23;5.18;;;6.60;99.90;;;;;;5050816;28;20040;-78
2023/01/13 08:44:56;;;;;;;8.68;4.95;;;6.60;99.90;;;;;;5049324;28;20029;-76
2023/01/13 08:47:22;;;;;;;7.78;4.82;;;6.70;99.90;;;;;;5049322;28;20033;-76
2023/01/13 08:49:48;;;;;;;8.13;5.07;;;6.70;99.90;;;;;;5050492;28;20033;-77
2023/01/13 08:52:13;;;;;;;9.10;6.15;;;6.70;99.90;;;;;;5051303;28;20021;-77
2023/01/13 08:54:40;;;;;;;9.98;5.75;;;6.70;99.90;;;;;;5051383;28;20525;-76
2023/01/13 08:57:06;;;;;;;7.43;5.35;;;6.80;99.90;;;;;;5052576;28;20025;-76
2023/01/13 08:59:32;;;;;;;8.68;5.65;;;6.80;99.90;;;;;;5052617;28;20061;-76
2023/01/13 09:01:58;;;;;;;9.82;5.47;;;6.80;99.90;;;;;;5052554;28;20038;-77
2023/01/13 09:04:26;;;;;;;9.20;6.05;;;6.80;99.90;;;;;;5052855;28;20478;-76
2023/01/13 09:06:52;;;;;;;7.38;5.15;;;6.80;99.90;;;;;;5050851;28;20041;-76
2023/01/13 09:09:18;;;;;;;10.63;5.35;;;6.80;99.90;;;;;;5051150;28;20036;-77
2023/01/13 09:14:33;;;;;;;12.30;7.30;;;6.90;99.90;;;;;;5051454;28;20107;-77
2023/01/13 09:16:59;;;;;;;10.00;6.28;;;6.90;99.90;;;;;;5119482;27;20039;-76
2023/01/13 09:19:26;;;;;;;13.25;7.93;;;6.90;99.90;;;;;;5119204;27;20674;-77
2023/01/13 09:21:52;;;;;;;9.05;5.40;;;6.90;99.90;;;;;;5117214;27;20036;-77
2023/01/13 09:24:19;;;;;;;7.30;4.88;;;6.90;99.90;;;;;;5118992;27;20017;-77
2023/01/13 09:26:44;;;;;;;8.38;5.82;;;7.00;99.90;;;;;;5118700;27;20557;-76
2023/01/13 09:29:10;;;;;;;8.07;5.72;;;7.00;99.90;;;;;;5119431;27;20124;-76
2023/01/13 09:31:35;;;;;;;8.65;5.40;;;7.00;99.90;;;;;;5050335;28;20057;-76
2023/01/13 09:36:47;;;;;;;6.03;4.10;;;7.10;99.90;;;;;;5052515;28;20036;-76
2023/01/13 09:39:13;;;;;;;6.75;4.43;;;7.20;99.90;;;;;;5121601;27;20025;-76
2023/01/13 09:44:49;;;;;;;5.47;3.97;;;7.40;99.90;;;;;;5052652;28;20055;-76
2023/01/13 09:47:31;;;;;;;5.38;3.95;;;7.50;99.90;;;;;;5121853;27;20120;-76
2023/01/13 09:50:25;;;;;;;4.27;3.43;;;7.60;99.90;;;;;;5052213;28;20085;-76
2023/01/13 09:52:51;;;;;;;5.07;3.53;;;7.70;99.90;;;;;;5034128;28;20033;-76
2023/01/13 09:55:47;;;;;;;8.32;3.90;;;7.80;99.90;;;;;;5052174;28;20032;-77
2023/01/13 09:58:16;;;;;;;4.97;3.80;;;7.90;99.90;;;;;;5034140;28;20029;-76
2023/01/13 10:01:05;;;;;;;6.82;3.92;;;8.00;99.90;;;;;;5034456;28;20136;-76
2023/01/13 10:03:33;;;;;;;17.23;15.43;;;8.00;95.00;;;;;;5034422;28;20081;-76
2023/01/13 10:06:16;;;;;;;10.98;7.05;;;8.00;96.90;;;;;;5052306;28;20483;-76
2023/01/13 10:08:43;;;;;;;30.00;26.88;;;8.00;95.80;;;;;;5052046;28;20017;-76
2023/01/13 10:14:33;;;;;;;11.23;7.20;;;8.10;95.00;;;;;;5052114;28;20073;-76
2023/01/13 10:17:41;;;;;;;7.85;5.78;;;8.20;96.20;;;;;;5051895;28;20029;-76
2023/01/13 10:20:46;;;;;;;9.40;5.60;;;8.20;92.10;;;;;;5051997;28;20033;-77
2023/01/13 10:23:34;;;;;;;5.15;4.60;;;8.30;93.00;;;;;;5057999;28;20037;-76
2023/01/13 10:26:30;;;;;;;9.63;5.53;;;8.30;94.80;;;;;;5033947;28;20025;-76
2023/01/13 10:28:57;;;;;;;9.18;4.78;;;8.40;93.20;;;;;;5051684;28;20041;-76
2023/01/13 10:31:23;;;;;;;7.43;5.32;;;8.50;93.70;;;;;;5033402;28;20045;-77
2023/01/13 10:33:58;;;;;;;8.77;4.72;;;8.50;91.90;;;;;;5051536;28;20029;-77
2023/01/13 10:36:24;;;;;;;7.40;4.85;;;8.50;91.50;;;;;;5051369;28;20078;-76
2023/01/13 10:38:50;;;;;;;8.00;5.55;;;8.40;90.40;;;;;;5050186;28;20478;-77
2023/01/13 10:41:17;;;;;;;5.75;4.60;;;8.40;92.20;;;;;;5050224;28;20013;-76
2023/01/13 10:44:04;;;;;;;4.53;4.07;;;8.40;91.20;;;;;;5051428;28;20487;-76
2023/01/13 10:46:48;;;;;;;8.02;4.20;;;8.40;92.00;;;;;;5051391;28;20363;-76
2023/01/13 10:49:35;;;;;;;6.22;3.85;;;8.50;91.00;;;;;;5050108;28;20033;-77
2023/01/13 10:52:02;;;;;;;5.07;3.40;;;8.40;90.10;;;;;;5040876;28;20485;-76
2023/01/13 10:54:28;;;;;;;5.93;3.30;;;8.50;91.50;;;;;;5051341;28;20025;-76
2023/01/13 10:57:18;;;;;;;5.70;4.00;;;8.60;90.60;;;;;;5033368;28;20025;-76
2023/01/13 10:59:43;;;;;;;4.10;3.42;;;8.60;89.70;;;;;;5051118;28;20066;-76
2023/01/13 11:02:29;;;;;;;6.05;4.78;;;8.70;89.90;;;;;;5051126;28;20120;-77
2023/01/13 11:04:54;;;;;;;4.85;3.80;;;8.90;90.60;;;;;;5033399;28;20162;-76
2023/01/13 11:07:27;;;;;;;4.72;3.92;;;8.90;89.00;;;;;;5051093;28;20446;-76
2023/01/13 11:10:08;;;;;;;7.00;3.53;;;9.00;87.40;;;;;;5051160;28;20518;-76
2023/01/13 11:12:41;;;;;;;5.00;3.22;;;8.90;86.80;;;;;;5049750;28;20040;-76
2023/01/13 11:15:12;;;;;;;4.93;4.40;;;9.00;87.40;;;;;;5119801;27;20017;-77
2023/01/13 11:17:46;;;;;;;9.15;6.45;;;8.90;86.20;;;;;;5050631;27;20089;-77
2023/01/13 11:20:14;;;;;;;10.00;6.07;;;8.90;86.60;;;;;;5050504;27;20521;-77
2023/01/13 11:22:45;;;;;;;7.20;3.63;;;8.90;85.50;;;;;;5050479;28;20048;-76
2023/01/13 11:25:43;;;;;;;4.72;3.63;;;8.80;86.50;;;;;;5119185;27;20013;-77
2023/01/13 11:28:34;;;;;;;11.45;5.13;;;8.90;86.60;;;;;;5050765;28;20041;-76
2023/01/13 11:31:35;;;;;;;4.38;3.55;;;8.80;85.50;;;;;;5119252;27;20494;-76
2023/01/13 11:34:26;;;;;;;4.70;4.30;;;8.90;85.20;;;;;;5049910;28;20025;-76
2023/01/13 11:36:55;;;;;;;11.13;6.00;;;9.00;85.00;;;;;;5048688;28;20876;-76
2023/01/13 11:39:54;;;;;;;6.05;4.50;;;9.00;84.70;;;;;;5050011;28;20063;-76
2023/01/13 11:42:35;;;;;;;5.00;3.83;;;9.10;85.00;;;;;;5050231;28;20025;-76
2023/01/13 11:45:31;;;;;;;8.07;3.92;;;9.20;85.40;;;;;;5049125;28;20054;-76
2023/01/13 11:47:59;;;;;;;6.10;3.28;;;9.20;84.70;;;;;;5027645;28;20013;-77
2023/01/13 11:50:37;;;;;;;4.13;3.35;;;9.20;84.20;;;;;;5045102;28;20135;-76
2023/01/13 11:53:35;;;;;;;11.05;5.80;;;9.10;83.50;;;;;;5049601;27;20029;-76
2023/01/13 11:56:27;;;;;;;12.95;6.80;;;9.10;83.80;;;;;;5011612;28;20045;-76
2023/01/13 11:59:14;;;;;;;7.07;5.20;;;9.10;83.50;;;;;;5032943;28;20068;-77
2023/01/13 12:02:17;;;;;;;16.10;8.35;;;9.10;83.90;;;;;;5049009;28;20021;-77
2023/01/13 12:05:05;;;;;;;11.05;7.18;;;9.10;85.50;;;;;;5030400;28;20033;-78
2023/01/13 12:07:40;;;;;;;7.78;5.60;;;9.00;84.30;;;;;;5048874;28;20031;-77
2023/01/13 12:10:16;;;;;;;8.00;5.57;;;9.00;85.10;;;;;;5048914;28;20077;-77
2023/01/13 12:13:05;;;;;;;8.85;4.43;;;9.00;85.50;;;;;;5030699;28;20079;-77
2023/01/13 12:15:54;;;;;;;6.28;5.60;;;8.90;85.30;;;;;;5048484;28;20048;-76
2023/01/13 12:18:33;;;;;;;14.07;7.88;;;8.90;85.00;;;;;;5030740;28;20059;-76
2023/01/13 12:21:19;;;;;;;13.48;6.22;;;8.90;85.00;;;;;;5048799;28;20115;-77
2023/01/13 12:23:55;;;;;;;9.93;5.35;;;8.80;86.00;;;;;;5048579;28;20093;-79
2023/01/13 12:26:22;;;;;;;7.88;7.07;;;8.80;85.90;;;;;;5030832;28;20036;-79
2023/01/13 12:29:05;;;;;;;14.40;7.57;;;8.80;87.90;;;;;;5047651;28;20112;-78
2023/01/13 12:31:35;;;;;;;7.72;4.95;;;8.80;86.10;;;;;;5030106;28;20045;-79
2023/01/13 12:34:07;;;;;;;7.55;6.40;;;8.80;87.80;;;;;;5029500;28;20021;-79
2023/01/13 12:36:48;;;;;;;10.70;8.40;;;8.70;86.70;;;;;;5030544;28;20090;-79
2023/01/13 12:39:25;;;;;;;14.02;7.47;;;8.70;88.20;;;;;;5048749;28;20029;-79
2023/01/13 12:45:10;;;;;;;8.60;6.15;;;8.60;88.40;;;;;;5073616;27;20036;-79
2023/01/13 12:47:45;;;;;;;20.80;11.50;;;8.60;89.10;;;;;;5094755;28;20116;-79
2023/01/13 12:50:23;;;;;;;7.90;4.13;;;8.60;89.30;;;;;;5049177;27;20037;-79
2023/01/13 12:52:50;;;;;;;14.68;12.05;;;8.60;89.40;;;;;;5047970;28;20025;-79
2023/01/13 12:55:20;;;;;;;12.40;8.90;;;8.60;89.80;;;;;;5048702;28;20029;-80
2023/01/13 12:58:03;;;;;;;20.33;9.00;;;8.60;89.10;;;;;;5052686;28;20039;-80
2023/01/13 13:00:34;;;;;;;13.15;6.30;;;8.50;89.20;;;;;;5051994;28;20029;-80
2023/01/13 13:03:15;;;;;;;10.98;9.77;;;8.50;89.20;;;;;;5052534;28;20029;-79
2023/01/13 13:05:53;;;;;;;33.13;15.57;;;8.50;89.10;;;;;;5050066;28;20064;-79
2023/01/13 13:08:24;;;;;;;15.60;7.28;;;8.40;90.10;;;;;;5051282;28;20479;-77
2023/01/13 13:14:12;;;;;;;18.52;9.68;;;8.40;90.60;;;;;;5099016;27;20121;-82
2023/01/13 13:16:45;;;;;;;16.75;11.75;;;8.40;90.90;;;;;;5081390;27;20027;-82
2023/01/13 13:19:17;;;;;;;22.25;13.55;;;8.40;92.60;;;;;;5082796;27;20028;-83
2023/01/13 13:22:12;;;;;;;14.82;6.07;;;8.40;93.90;;;;;;5124329;27;20022;-83
2023/01/13 13:24:50;;;;;;;7.03;4.30;;;8.40;93.90;;;;;;5108518;27;20055;-78
2023/01/13 13:27:37;;;;;;;14.30;7.70;;;8.40;93.60;;;;;;5052118;28;20466;-77
2023/01/13 13:30:27;;;;;;;8.18;5.35;;;8.40;94.10;;;;;;5045086;28;20413;-77
2023/01/13 13:33:10;;;;;;;18.60;10.43;;;8.30;93.10;;;;;;5045854;28;20037;-78
2023/01/13 13:36:10;;;;;;;18.52;7.55;;;8.30;92.90;;;;;;5044535;28;21045;-78
2023/01/13 13:47:22;;;;;;;7.88;4.13;;;8.20;92.50;;;;;;5051381;28;20109;-78
2023/01/13 13:49:53;;;;;;;10.00;5.68;;;8.20;93.20;;;;;;5050223;28;20119;-77
2023/01/13 13:52:40;;;;;;;8.02;5.80;;;8.20;94.50;;;;;;5048747;28;20474;-78
2023/01/13 13:55:14;;;;;;;6.72;4.18;;;8.20;94.10;;;;;;5046409;28;20021;-79
2023/01/13 13:57:45;;;;;;;10.50;4.40;;;8.20;94.20;;;;;;5044705;28;20078;-79
2023/01/13 14:00:14;;;;;;;9.68;5.70;;;8.10;94.40;;;;;;5060595;27;20021;-79
2023/01/13 14:02:48;;;;;;;14.00;7.75;;;8.10;94.50;;;;;;5083751;27;20027;-79
2023/01/13 14:05:19;;;;;;;20.15;10.25;;;8.10;94.50;;;;;;5077882;27;20028;-80
2023/01/13 14:07:48;;;;;;;19.10;9.75;;;8.10;95.40;;;;;;5079559;27;20897;-80
2023/01/13 14:10:25;;;;;;;13.73;7.53;;;8.10;95.90;;;;;;5093707;27;20420;-79
2023/01/13 14:12:51;;;;;;;8.05;5.60;;;8.10;96.60;;;;;;5096308;27;20049;-79
2023/01/13 14:15:35;;;;;;;8.40;4.95;;;8.10;96.80;;;;;;5082071;27;20455;-81
2023/01/13 14:18:09;;;;;;;11.05;5.57;;;8.10;97.30;;;;;;5092326;27;20029;-79
2023/01/13 14:20:36;;;;;;;7.65;4.57;;;8.10;97.70;;;;;;5033934;28;20025;-77
2023/01/13 14:23:04;;;;;;;6.22;4.28;;;8.10;97.70;;;;;;5080158;27;20030;-79
2023/01/13 14:25:33;;;;;;;8.07;4.60;;;8.10;97.20;;;;;;5085936;27;20017;-79
2023/01/13 14:28:06;;;;;;;9.27;6.25;;;8.00;96.80;;;;;;5078810;27;20482;-78